Time;durP1;ratioP1;P1;durP2;ratioP2;P2;SDS_P1;SDS_P2;PMS_P1;PMS_P2;Temp;Humidity;BMP_temperature;BMP_pressure;BME280_temperature;BME280_humidity;BME280_pressure;Samples;Min_cycle;Max_cycle;Signal;HPM_P1;HPM_P2
2023/03/23 00:00:54;;;;;;;33.90;16.25;;;;;;;13.04;75.26;100725.66;4914589;29;20057;-76
2023/03/23 00:03:21;;;;;;;34.83;17.75;;;;;;;13.03;75.62;100724.03;4900688;29;20416;-76
2023/03/23 00:05:51;;;;;;;35.63;17.50;;;;;;;12.97;75.00;100722.47;4924036;29;20505;-76
2023/03/23 00:08:22;;;;;;;37.78;17.85;;;;;;;12.92;75.23;100719.75;4938850;29;20040;-76
2023/03/23 00:10:52;;;;;;;35.03;18.15;;;;;;;12.89;74.74;100713.75;4921747;29;20043;-76
2023/03/23 00:13:20;;;;;;;36.75;16.85;;;;;;;12.91;74.74;100716.22;4938574;29;20406;-76
2023/03/23 00:15:48;;;;;;;34.22;17.95;;;;;;;12.89;74.48;100715.69;4919552;29;20040;-76
2023/03/23 00:18:24;;;;;;;39.55;17.55;;;;;;;12.99;74.39;100714.72;4900681;29;20048;-76
2023/03/23 00:20:56;;;;;;;31.38;16.85;;;;;;;13.15;73.48;100723.63;4884897;29;20048;-76
2023/03/23 00:23:25;;;;;;;37.13;17.55;;;;;;;13.12;73.99;100724.19;4900430;29;20053;-76
2023/03/23 00:25:59;;;;;;;35.65;16.65;;;;;;;13.03;74.12;100708.38;4901576;29;20048;-76
2023/03/23 00:28:27;;;;;;;35.33;17.67;;;;;;;12.97;75.44;100708.72;4900884;29;20048;-76
2023/03/23 00:30:57;;;;;;;30.05;17.33;;;;;;;12.78;75.62;100698.50;4904933;29;20493;-76
2023/03/23 00:33:26;;;;;;;35.70;17.20;;;;;;;12.71;76.60;100709.03;4902083;29;20051;-76
2023/03/23 00:35:54;;;;;;;35.28;17.30;;;;;;;12.65;76.74;100704.69;4903592;29;20040;-77
2023/03/23 00:38:24;;;;;;;33.03;18.17;;;;;;;12.58;77.26;100696.78;4902323;29;20052;-76
2023/03/23 00:40:53;;;;;;;30.73;17.30;;;;;;;12.51;77.80;100691.63;4914040;29;20040;-76
2023/03/23 00:43:24;;;;;;;35.45;17.45;;;;;;;12.47;78.12;100696.09;4899864;29;20060;-76
2023/03/23 00:45:53;;;;;;;32.65;17.10;;;;;;;12.49;78.21;100680.13;4901299;29;20048;-76
2023/03/23 00:48:22;;;;;;;30.58;16.60;;;;;;;12.59;77.68;100690.19;4918550;29;20050;-76
2023/03/23 00:50:49;;;;;;;36.55;17.92;;;;;;;12.63;77.75;100692.06;4887395;29;20044;-76
2023/03/23 00:53:18;;;;;;;32.70;16.92;;;;;;;12.58;77.17;100689.38;4918652;29;20068;-76
2023/03/23 00:55:47;;;;;;;32.00;16.23;;;;;;;12.59;77.21;100696.50;4904267;29;20492;-76
2023/03/23 00:58:15;;;;;;;31.38;16.48;;;;;;;12.52;78.23;100678.75;4904584;29;20040;-76
2023/03/23 01:00:42;;;;;;;31.02;16.00;;;;;;;12.44;77.71;100686.50;4899934;29;20044;-76
2023/03/23 01:03:17;;;;;;;31.63;16.33;;;;;;;12.41;78.60;100678.84;4907769;29;20051;-76
2023/03/23 01:05:51;;;;;;;32.55;16.60;;;;;;;12.43;78.97;100678.56;4935350;29;20051;-76
2023/03/23 01:08:19;;;;;;;29.85;15.65;;;;;;;12.38;79.43;100682.19;4907678;29;20044;-76
2023/03/23 01:10:46;;;;;;;29.92;16.80;;;;;;;12.34;79.49;100670.13;4882188;29;20057;-77
2023/03/23 01:13:13;;;;;;;28.48;15.15;;;;;;;12.30;80.06;100669.06;4900641;29;20049;-76
2023/03/23 01:15:40;;;;;;;27.67;15.35;;;;;;;12.26;80.57;100670.78;4883774;29;20404;-77
2023/03/23 01:18:07;;;;;;;31.35;15.93;;;;;;;12.22;80.36;100676.03;4900506;29;20067;-76
2023/03/23 01:20:35;;;;;;;29.83;16.17;;;;;;;12.16;80.67;100667.00;4908648;29;20047;-76
2023/03/23 01:23:02;;;;;;;32.90;15.75;;;;;;;12.10;80.73;100670.91;4920383;29;20064;-76
2023/03/23 01:25:32;;;;;;;31.33;15.45;;;;;;;12.02;80.67;100669.56;4905612;29;20765;-76
2023/03/23 01:27:59;;;;;;;29.77;15.20;;;;;;;12.02;80.87;100660.53;4918300;29;20051;-76
2023/03/23 01:30:26;;;;;;;27.70;15.63;;;;;;;11.96;80.50;100665.22;4901063;29;20036;-76
2023/03/23 01:32:54;;;;;;;30.08;16.70;;;;;;;11.98;80.58;100663.03;4918270;29;20518;-76
2023/03/23 01:35:22;;;;;;;31.70;16.75;;;;;;;12.02;81.08;100666.81;4901029;29;20491;-76
2023/03/23 01:37:49;;;;;;;32.13;16.77;;;;;;;11.92;80.78;100658.66;4885430;29;20040;-76
2023/03/23 01:40:16;;;;;;;35.30;17.55;;;;;;;11.85;81.83;100656.28;4892583;29;20045;-76
2023/03/23 01:42:43;;;;;;;33.97;18.13;;;;;;;11.83;81.83;100653.81;4899824;29;20052;-77
2023/03/23 01:45:16;;;;;;;40.60;17.50;;;;;;;11.86;82.10;100648.84;4899356;29;20499;-76
2023/03/23 01:47:43;;;;;;;32.85;16.83;;;;;;;11.89;82.09;100651.88;4900625;29;20051;-76
2023/03/23 01:50:10;;;;;;;36.25;17.40;;;;;;;11.88;82.18;100650.22;4900687;29;20048;-76
2023/03/23 01:52:37;;;;;;;35.85;16.90;;;;;;;11.81;82.25;100645.06;4883208;29;20068;-76
2023/03/23 01:55:05;;;;;;;33.70;16.70;;;;;;;11.83;81.82;100640.09;4883343;29;20075;-76
2023/03/23 01:57:33;;;;;;;34.95;17.60;;;;;;;11.86;82.27;100638.72;4890562;29;20044;-76
2023/03/23 02:00:14;;;;;;;27.13;15.88;;;;;;;11.85;82.04;100642.56;4883119;29;20045;-76
2023/03/23 02:02:48;;;;;;;28.30;16.20;;;;;;;11.82;82.22;100641.22;4911328;29;20381;-76
2023/03/23 02:05:31;;;;;;;38.22;17.95;;;;;;;11.79;82.47;100646.47;4881061;29;20509;-76
2023/03/23 02:08:05;;;;;;;38.35;18.40;;;;;;;11.76;82.30;100641.53;4890840;29;20048;-76
2023/03/23 02:10:36;;;;;;;32.90;17.23;;;;;;;11.76;81.20;100638.78;4913311;29;20044;-76
2023/03/23 02:13:07;;;;;;;37.67;18.08;;;;;;;11.71;81.42;100645.16;4866552;29;20049;-76
2023/03/23 02:15:43;;;;;;;36.75;18.52;;;;;;;11.70;81.20;100643.50;4866374;29;20044;-76
2023/03/23 02:18:30;;;;;;;36.38;17.98;;;;;;;11.63;82.29;100630.13;4898441;29;20041;-76
2023/03/23 02:21:21;;;;;;;39.60;18.58;;;;;;;11.56;81.66;100627.72;4897659;29;20083;-77
2023/03/23 02:23:58;;;;;;;40.05;19.63;;;;;;;11.55;82.23;100625.25;4881448;29;20049;-76
2023/03/23 02:26:36;;;;;;;46.65;19.90;;;;;;;11.55;82.43;100617.03;4881778;29;20492;-76
2023/03/23 02:29:33;;;;;;;40.55;17.95;;;;;;;11.48;81.96;100614.59;4899313;29;20708;-76
2023/03/23 02:32:21;;;;;;;35.70;18.65;;;;;;;11.50;82.25;100623.38;4908884;29;20040;-76
2023/03/23 02:34:55;;;;;;;39.92;18.55;;;;;;;11.51;82.48;100625.00;4916309;29;20487;-76
2023/03/23 02:37:51;;;;;;;37.70;18.45;;;;;;;11.44;82.40;100621.75;4916801;29;20044;-76
2023/03/23 02:40:40;;;;;;;38.55;19.48;;;;;;;11.42;82.55;100626.72;4885535;29;20053;-76
2023/03/23 02:43:13;;;;;;;48.80;21.85;;;;;;;11.42;82.59;100619.31;4901502;29;20484;-76
2023/03/23 02:45:43;;;;;;;38.65;18.88;;;;;;;11.40;82.70;100617.97;4895686;29;20055;-76
2023/03/23 02:48:14;;;;;;;39.95;19.35;;;;;;;11.47;83.32;100629.41;4889704;29;20052;-76
2023/03/23 02:50:45;;;;;;;40.05;19.30;;;;;;;11.37;83.27;100629.47;4900536;29;20041;-77
2023/03/23 02:53:15;;;;;;;46.75;20.65;;;;;;;11.30;83.84;100632.56;4884869;29;20047;-77
2023/03/23 02:55:44;;;;;;;42.35;19.60;;;;;;;11.23;83.30;100627.38;4899311;29;20047;-77
2023/03/23 02:58:15;;;;;;;42.90;19.90;;;;;;;11.26;83.41;100629.56;4897707;29;20393;-77
2023/03/23 03:00:44;;;;;;;39.17;18.80;;;;;;;11.23;83.74;100624.63;4875699;29;20044;-76
2023/03/23 03:03:17;;;;;;;37.38;19.67;;;;;;;11.29;84.19;100639.94;4897479;29;20045;-76
2023/03/23 03:06:36;;;;;;;41.28;19.92;;;;;;;11.29;83.66;100623.50;4881034;29;20063;-77
2023/03/23 03:09:18;;;;;;;36.60;19.42;;;;;;;11.24;83.75;100626.28;4827564;29;20065;-77
2023/03/23 03:11:52;;;;;;;36.03;18.67;;;;;;;11.26;84.18;100624.09;4821044;29;20054;-76
2023/03/23 03:14:25;;;;;;;36.97;19.63;;;;;;;11.29;83.71;100623.50;4861431;29;20091;-76
2023/03/23 03:17:11;;;;;;;42.83;20.13;;;;;;;11.31;83.77;100619.66;4899304;29;20040;-77
2023/03/23 03:19:43;;;;;;;40.67;20.02;;;;;;;11.36;84.11;100633.31;4883849;29;20055;-76
2023/03/23 03:22:11;;;;;;;41.90;19.77;;;;;;;11.28;83.35;100624.63;4889638;29;20052;-76
2023/03/23 03:24:42;;;;;;;40.58;19.83;;;;;;;11.26;83.66;100629.56;4897572;29;20405;-77
2023/03/23 03:27:16;;;;;;;37.33;19.65;;;;;;;11.29;84.05;100634.47;4887654;29;20047;-77
2023/03/23 03:29:51;;;;;;;42.80;19.48;;;;;;;11.33;83.66;100628.44;4899012;29;20051;-77
2023/03/23 03:32:23;;;;;;;41.78;19.95;;;;;;;11.26;83.55;100648.75;4898988;29;20391;-76
2023/03/23 03:34:52;;;;;;;41.33;19.92;;;;;;;11.25;83.73;100649.00;4903595;29;20032;-76
2023/03/23 03:37:20;;;;;;;40.90;19.63;;;;;;;11.25;83.94;100644.34;4918284;29;20580;-77
2023/03/23 03:39:50;;;;;;;44.78;20.55;;;;;;;11.27;83.80;100635.84;4906463;29;20059;-76
2023/03/23 03:42:17;;;;;;;47.15;21.42;;;;;;;11.28;84.41;100640.22;4899225;29;20048;-77
2023/03/23 03:44:44;;;;;;;40.60;18.67;;;;;;;11.24;84.61;100648.19;4899046;29;20060;-77
2023/03/23 03:47:11;;;;;;;38.97;19.90;;;;;;;11.24;83.86;100639.16;4916117;29;20044;-76
2023/03/23 03:49:38;;;;;;;43.30;20.30;;;;;;;11.16;84.08;100637.84;4916134;29;20044;-76
2023/03/23 03:52:05;;;;;;;39.63;20.40;;;;;;;11.22;83.89;100639.44;4928353;29;20044;-77
2023/03/23 03:54:40;;;;;;;;;;;;;;;11.26;84.02;100639.69;4918575;29;20398;-76
2023/03/23 03:57:07;;;;;;;42.10;21.25;;;;;;;11.18;84.07;100646.56;4918065;29;20301;-77
2023/03/23 03:59:53;;;;;;;41.30;20.70;;;;;;;11.21;83.91;100647.94;4935094;29;20047;-77
2023/03/23 04:02:38;;;;;;;44.05;21.75;;;;;;;11.18;84.46;100641.09;4934991;29;20044;-76
2023/03/23 04:05:05;;;;;;;38.70;19.92;;;;;;;11.21;84.16;100648.75;4904176;29;20064;-76
2023/03/23 04:07:33;;;;;;;37.72;20.27;;;;;;;11.13;84.23;100654.81;4898443;29;20211;-76
2023/03/23 04:10:00;;;;;;;37.85;19.70;;;;;;;11.13;84.30;100646.59;4915663;29;20525;-77
2023/03/23 04:12:27;;;;;;;41.17;19.95;;;;;;;11.08;84.82;100643.88;4898461;29;20044;-76
2023/03/23 04:14:56;;;;;;;40.80;18.98;;;;;;;11.06;84.74;100652.41;4905080;29;20051;-77
2023/03/23 04:17:28;;;;;;;40.15;19.20;;;;;;;11.06;85.62;100651.56;4880241;29;20056;-77
2023/03/23 04:19:59;;;;;;;44.55;19.90;;;;;;;11.04;85.26;100656.53;4881154;29;20044;-76
2023/03/23 04:22:31;;;;;;;48.20;20.25;;;;;;;11.04;84.82;100656.53;4880220;29;20048;-76
2023/03/23 04:25:05;;;;;;;42.70;18.70;;;;;;;11.05;85.68;100655.41;4890450;29;20044;-77
2023/03/23 04:27:38;;;;;;;36.05;19.33;;;;;;;11.08;85.95;100660.31;4898493;29;20507;-76
2023/03/23 04:30:07;;;;;;;39.20;18.73;;;;;;;11.10;85.38;100660.88;4879892;29;20044;-76
2023/03/23 04:32:41;;;;;;;41.45;20.58;;;;;;;11.19;84.67;100666.59;4897766;29;20647;-76
2023/03/23 04:35:13;;;;;;;42.83;20.52;;;;;;;11.25;84.83;100660.78;4897797;29;20052;-76
2023/03/23 04:37:49;;;;;;;41.08;21.35;;;;;;;11.17;85.25;100655.91;4880066;29;20044;-76
2023/03/23 04:40:20;;;;;;;43.28;21.35;;;;;;;11.14;85.44;100657.28;4880989;29;20048;-77
2023/03/23 04:43:05;;;;;;;43.30;20.08;;;;;;;11.14;85.50;100660.03;4881319;29;20037;-76
2023/03/23 04:45:56;;;;;;;42.58;19.35;;;;;;;11.11;85.02;100670.72;4896020;29;20407;-77
2023/03/23 04:48:26;;;;;;;40.17;20.30;;;;;;;11.09;86.07;100672.94;4886480;29;20071;-76
2023/03/23 04:51:05;;;;;;;40.90;20.67;;;;;;;11.08;85.50;100683.06;4901580;29;20504;-76
2023/03/23 04:53:33;;;;;;;39.42;18.45;;;;;;;11.02;85.59;100662.28;4876081;29;20064;-77
2023/03/23 04:56:01;;;;;;;41.92;19.58;;;;;;;11.10;85.33;100682.78;4885036;29;20053;-76
2023/03/23 04:58:33;;;;;;;41.25;20.20;;;;;;;11.06;86.15;100670.75;4880800;29;20048;-77
2023/03/23 05:01:23;;;;;;;45.85;19.83;;;;;;;11.13;85.23;100679.47;4902671;29;20056;-77
2023/03/23 05:04:10;;;;;;;45.83;21.60;;;;;;;11.21;85.26;100684.38;4898615;29;20048;-77
2023/03/23 05:06:37;;;;;;;41.35;20.83;;;;;;;11.21;85.84;100676.16;4886102;29;20488;-77
2023/03/23 05:09:12;;;;;;;41.63;20.35;;;;;;;11.28;85.40;100671.19;4901561;29;20040;-76
2023/03/23 05:11:40;;;;;;;42.10;19.92;;;;;;;11.25;85.67;100671.72;4901297;29;20040;-77
2023/03/23 05:14:07;;;;;;;36.03;18.08;;;;;;;11.25;86.53;100677.22;4899155;29;20048;-77
2023/03/23 05:16:37;;;;;;;37.25;19.20;;;;;;;11.31;85.43;100671.72;4883038;29;20052;-77
2023/03/23 05:19:05;;;;;;;36.35;18.90;;;;;;;11.28;87.48;100682.16;4867616;29;20060;-89
2023/03/23 05:21:34;;;;;;;38.35;18.73;;;;;;;11.87;85.30;100669.72;4860776;29;20397;-85
2023/03/23 05:24:00;;;;;;;38.78;18.08;;;;;;;12.39;81.30;100674.75;4900122;29;20036;-84
2023/03/23 05:26:29;;;;;;;40.38;18.92;;;;;;;12.22;80.14;100676.03;4901521;29;20480;-84
2023/03/23 05:29:03;;;;;;;40.17;18.33;;;;;;;12.19;80.15;100680.16;4886570;29;20036;-84
2023/03/23 05:31:55;;;;;;;37.75;18.08;;;;;;;12.57;78.09;100684.97;4915325;29;20047;-85
2023/03/23 05:34:26;;;;;;;39.83;18.10;;;;;;;12.27;78.36;100688.88;4881649;29;20055;-84
2023/03/23 05:37:00;;;;;;;38.83;18.80;;;;;;;12.18;79.13;100699.66;4915867;29;20048;-84
2023/03/23 05:39:47;;;;;;;35.42;18.00;;;;;;;12.02;80.20;100687.97;4907963;29;20074;-84
2023/03/23 05:42:14;;;;;;;40.28;18.02;;;;;;;12.23;79.75;100705.09;4914712;29;20055;-84
2023/03/23 05:45:05;;;;;;;40.42;19.20;;;;;;;12.24;79.24;100712.22;4877476;29;20044;-85
2023/03/23 05:47:33;;;;;;;38.63;18.13;;;;;;;12.35;78.80;100707.44;4878244;29;20044;-84
2023/03/23 05:50:08;;;;;;;37.00;18.55;;;;;;;12.55;78.14;100711.91;4883198;29;20392;-85
2023/03/23 05:52:36;;;;;;;37.30;17.40;;;;;;;12.45;78.22;100714.75;4906225;29;20047;-84
2023/03/23 05:55:08;;;;;;;36.28;19.20;;;;;;;12.36;78.70;100720.06;4886917;29;20488;-85
2023/03/23 05:57:37;;;;;;;36.97;18.10;;;;;;;12.48;78.10;100714.19;4892965;29;20706;-85
2023/03/23 06:00:23;;;;;;;44.13;18.55;;;;;;;12.19;79.06;100712.25;4872667;29;20065;-84
2023/03/23 06:02:58;;;;;;;38.58;18.45;;;;;;;12.15;80.00;100722.16;4886000;29;20392;-83
2023/03/23 06:05:46;;;;;;;40.00;19.58;;;;;;;12.60;78.42;100728.34;4896181;29;20419;-83
2023/03/23 06:08:16;;;;;;;33.83;18.15;;;;;;;12.84;77.22;100726.72;4888862;29;20087;-82
2023/03/23 06:10:43;;;;;;;34.50;18.02;;;;;;;12.98;76.67;100730.41;4889642;29;20044;-84
2023/03/23 06:13:12;;;;;;;35.30;17.23;;;;;;;12.93;76.65;100735.97;4871712;29;20052;-82
2023/03/23 06:15:45;;;;;;;34.72;18.05;;;;;;;13.02;76.39;100734.19;4909450;29;20044;-83
2023/03/23 06:18:36;;;;;;;38.08;17.98;;;;;;;13.13;76.66;100745.91;4894980;29;20065;-82
2023/03/23 06:21:26;;;;;;;32.83;16.17;;;;;;;13.30;75.64;100753.66;4894038;29;20063;-81
2023/03/23 06:23:56;;;;;;;29.40;16.83;;;;;;;13.09;75.95;100742.09;4934629;29;20051;-82
2023/03/23 06:26:32;;;;;;;31.58;17.27;;;;;;;13.21;76.14;100749.09;4907902;29;20040;-83
2023/03/23 06:29:01;;;;;;;37.60;17.60;;;;;;;13.25;76.62;100739.97;4884677;29;20067;-82
2023/03/23 06:31:34;;;;;;;38.90;18.52;;;;;;;13.42;75.41;100742.25;4885545;29;20056;-82
2023/03/23 06:34:02;;;;;;;36.10;18.05;;;;;;;13.47;75.71;100751.53;4888020;29;20055;-82
2023/03/23 06:36:48;;;;;;;37.25;18.35;;;;;;;13.46;76.37;100755.38;4903073;29;20497;-82
2023/03/23 06:39:19;;;;;;;37.80;17.70;;;;;;;13.61;75.82;100751.63;4905641;29;20399;-84
2023/03/23 06:42:08;;;;;;;33.20;16.50;;;;;;;13.83;75.29;100765.63;4916676;29;20384;-82
2023/03/23 06:44:38;;;;;;;;;;;;;;;14.08;73.99;100766.34;4877097;29;20056;-84
2023/03/23 06:47:05;;;;;;;40.28;18.33;;;;;;;14.18;73.50;100761.81;4899025;29;19931;-84
2023/03/23 06:49:36;;;;;;;32.13;16.90;;;;;;;14.44;72.54;100770.47;4898580;29;20052;-84
2023/03/23 06:52:11;;;;;;;34.83;16.92;;;;;;;14.57;72.13;100773.56;4883927;29;20044;-84
2023/03/23 06:54:38;;;;;;;36.30;17.50;;;;;;;14.67;71.40;100770.63;4899476;29;20040;-84
2023/03/23 06:57:07;;;;;;;34.85;17.60;;;;;;;14.64;71.37;100773.97;4884325;29;20048;-84
2023/03/23 06:59:34;;;;;;;35.88;17.88;;;;;;;14.69;71.68;100779.41;4899428;29;20044;-84
2023/03/23 07:02:02;;;;;;;35.72;18.15;;;;;;;14.64;70.77;100776.72;4899372;29;20361;-84
2023/03/23 07:04:30;;;;;;;34.17;17.08;;;;;;;14.62;71.15;100781.72;4898904;29;20059;-84
2023/03/23 07:07:05;;;;;;;38.47;17.17;;;;;;;14.64;71.17;100772.03;4899130;29;20040;-84
2023/03/23 07:09:37;;;;;;;38.08;18.85;;;;;;;14.56;71.20;100775.47;4899206;29;20048;-84
2023/03/23 07:12:05;;;;;;;38.38;18.05;;;;;;;14.71;70.86;100774.38;4899189;29;20155;-84
2023/03/23 07:14:38;;;;;;;37.05;17.63;;;;;;;14.70;70.35;100771.94;4899218;29;20044;-84
2023/03/23 07:17:07;;;;;;;36.83;18.20;;;;;;;14.64;70.47;100776.72;4899283;29;20059;-85
2023/03/23 07:19:38;;;;;;;39.03;18.40;;;;;;;14.71;70.94;100785.41;4899231;29;20051;-84
2023/03/23 07:22:06;;;;;;;34.42;18.23;;;;;;;14.72;71.14;100780.72;4899111;29;20059;-84
2023/03/23 07:24:35;;;;;;;36.40;18.88;;;;;;;14.58;71.71;100780.69;4898835;29;20044;-84
2023/03/23 07:27:11;;;;;;;34.05;18.52;;;;;;;14.72;71.56;100776.00;4899124;29;20057;-84
2023/03/23 07:29:39;;;;;;;38.60;19.48;;;;;;;14.76;71.77;100793.63;4898956;29;20051;-84
2023/03/23 07:32:14;;;;;;;34.25;18.30;;;;;;;14.90;71.37;100790.06;4899025;29;20048;-84
2023/03/23 07:34:41;;;;;;;37.55;17.88;;;;;;;14.90;71.66;100784.53;4883534;29;20055;-84
2023/03/23 07:37:18;;;;;;;37.33;18.88;;;;;;;14.93;71.36;100791.38;4899458;29;20048;-84
2023/03/23 07:39:48;;;;;;;34.10;18.27;;;;;;;15.04;70.62;100796.41;4915782;29;20040;-84
2023/03/23 07:42:16;;;;;;;38.53;19.27;;;;;;;15.07;70.46;100783.97;4899168;29;20052;-84
2023/03/23 07:44:49;;;;;;;37.90;18.90;;;;;;;15.29;69.84;100793.44;4898746;29;20052;-84
2023/03/23 07:47:17;;;;;;;34.13;17.30;;;;;;;15.37;69.25;100781.72;4898867;29;20044;-84
2023/03/23 07:49:47;;;;;;;37.22;18.63;;;;;;;15.52;68.45;100776.97;4898957;29;20051;-84
2023/03/23 07:52:33;;;;;;;37.95;19.60;;;;;;;15.59;67.74;100771.84;4899180;29;20511;-84
2023/03/23 07:55:01;;;;;;;35.05;19.77;;;;;;;15.84;67.42;100780.72;4899132;29;20055;-84
2023/03/23 07:57:43;;;;;;;38.20;19.27;;;;;;;16.05;66.75;100783.84;4898769;29;20040;-84
2023/03/23 08:00:13;;;;;;;40.10;18.55;;;;;;;16.34;65.49;100782.59;4915696;29;20387;-84
2023/03/23 08:02:42;;;;;;;40.60;19.35;;;;;;;16.21;63.11;100775.19;4916029;29;20056;-84
2023/03/23 08:05:47;;;;;;;36.05;18.58;;;;;;;16.44;63.32;100773.25;4838780;29;20076;-84
2023/03/23 08:08:14;;;;;;;34.97;17.92;;;;;;;16.37;62.79;100772.84;4839015;29;20194;-85
2023/03/23 08:11:00;;;;;;;33.97;17.38;;;;;;;16.53;61.90;100795.41;4884721;29;20071;-85
2023/03/23 08:13:45;;;;;;;31.38;17.33;;;;;;;16.20;62.06;100784.59;4915375;29;20067;-85
2023/03/23 08:16:19;;;;;;;33.60;18.50;;;;;;;16.43;62.27;100785.38;4915996;29;20063;-85
2023/03/23 08:19:12;;;;;;;33.25;17.88;;;;;;;16.36;61.94;100787.78;4896929;29;20059;-85
2023/03/23 08:21:50;;;;;;;30.92;17.17;;;;;;;16.44;61.29;100781.53;4902385;29;20051;-85
2023/03/23 08:24:43;;;;;;;33.65;18.48;;;;;;;16.39;60.45;100782.44;4916026;29;20056;-85
2023/03/23 08:27:37;;;;;;;32.67;18.27;;;;;;;16.61;61.52;100789.09;4916101;29;20079;-84
2023/03/23 08:30:33;;;;;;;33.47;17.75;;;;;;;16.62;60.91;100798.22;4883247;29;20052;-85
2023/03/23 08:33:21;;;;;;;30.20;17.20;;;;;;;16.75;61.11;100788.19;4918492;29;20064;-84
2023/03/23 08:35:58;;;;;;;34.40;19.00;;;;;;;16.72;61.94;100802.66;4902045;29;20479;-84
2023/03/23 08:38:45;;;;;;;33.63;18.30;;;;;;;16.62;62.14;100796.25;4889424;29;20423;-85
2023/03/23 08:41:38;;;;;;;33.28;17.85;;;;;;;16.79;61.29;100791.97;4914873;29;20501;-84
2023/03/23 08:44:20;;;;;;;33.38;18.13;;;;;;;16.66;60.69;100800.03;4901728;29;20040;-84
2023/03/23 08:47:06;;;;;;;36.75;17.30;;;;;;;16.89;59.70;100794.44;4918828;29;20506;-84
2023/03/23 08:49:53;;;;;;;33.17;17.48;;;;;;;17.15;59.79;100802.06;4918434;29;20048;-84
2023/03/23 08:52:38;;;;;;;29.65;17.73;;;;;;;17.04;58.74;100801.53;4918743;29;20043;-84
2023/03/23 08:55:28;;;;;;;39.67;18.92;;;;;;;16.91;59.70;100808.75;4882800;29;20060;-84
2023/03/23 08:58:18;;;;;;;33.22;17.95;;;;;;;16.91;59.59;100802.41;4908231;29;20059;-84
2023/03/23 09:01:24;;;;;;;;;;;;;;;16.92;59.54;100815.13;4903505;29;20051;-84
2023/03/23 09:04:03;;;;;;;29.83;17.40;;;;;;;16.82;59.19;100810.69;4901532;29;19930;-84
2023/03/23 09:06:40;;;;;;;32.65;17.70;;;;;;;16.85;59.36;100804.50;4918581;29;20059;-84
2023/03/23 09:09:06;;;;;;;36.70;19.30;;;;;;;17.04;59.94;100807.06;4901503;29;20557;-84
2023/03/23 09:11:35;;;;;;;34.05;18.23;;;;;;;17.12;60.51;100808.25;4901234;29;20047;-85
2023/03/23 09:14:04;;;;;;;36.30;18.38;;;;;;;17.34;59.69;100803.75;4918322;29;20048;-84
2023/03/23 09:16:31;;;;;;;33.38;18.58;;;;;;;17.40;58.55;100819.06;4918307;29;20063;-85
2023/03/23 09:18:58;;;;;;;35.83;19.52;;;;;;;17.54;58.75;100809.84;4918211;29;20052;-84
2023/03/23 09:21:26;;;;;;;32.50;19.25;;;;;;;17.60;57.90;100805.78;4918080;29;20523;-84
2023/03/23 09:23:56;;;;;;;31.35;18.27;;;;;;;17.68;58.36;100818.00;4917825;29;20040;-84
2023/03/23 09:26:23;;;;;;;32.53;18.42;;;;;;;17.58;57.67;100824.66;4918041;29;20518;-84
2023/03/23 09:28:51;;;;;;;33.38;19.00;;;;;;;17.51;56.84;100808.53;4917337;29;20511;-84
2023/03/23 09:31:22;;;;;;;28.95;16.40;;;;;;;17.59;57.39;100817.97;4918164;29;20395;-84
2023/03/23 09:33:56;;;;;;;32.90;17.90;;;;;;;17.76;56.13;100827.44;4901079;29;20040;-84
2023/03/23 09:36:25;;;;;;;29.90;16.95;;;;;;;17.90;54.99;100819.84;4918039;29;20510;-85
2023/03/23 09:38:52;;;;;;;30.45;16.67;;;;;;;17.83;55.10;100827.78;4917925;29;20048;-85
2023/03/23 09:41:45;;;;;;;27.85;16.33;;;;;;;17.96;53.99;100824.06;4917761;29;20063;-85
2023/03/23 09:44:30;;;;;;;26.65;16.35;;;;;;;18.23;55.04;100827.69;4917642;29;20126;-85
2023/03/23 09:47:25;;;;;;;41.17;18.85;;;;;;;18.16;53.59;100829.31;4900820;29;20056;-85
2023/03/23 09:49:51;;;;;;;;;;;;;;;17.99;54.13;100834.47;4918184;29;20055;-85
2023/03/23 09:52:19;;;;;;;27.60;16.13;;;;;;;18.15;54.27;100824.91;4917586;29;20267;-85
2023/03/23 09:54:50;;;;;;;30.02;16.45;;;;;;;18.21;53.90;100824.44;4917546;29;20056;-85
2023/03/23 09:57:37;;;;;;;29.55;16.55;;;;;;;18.37;53.68;100830.28;4917572;29;20051;-85
2023/03/23 10:00:21;;;;;;;28.92;16.23;;;;;;;18.72;53.15;100823.06;4900622;29;20059;-86
2023/03/23 10:03:20;;;;;;;29.65;15.88;;;;;;;18.83;52.50;100820.75;4917404;29;20055;-85
2023/03/23 10:05:50;;;;;;;29.58;17.15;;;;;;;18.78;52.02;100830.06;4914115;29;20487;-85
2023/03/23 10:08:20;;;;;;;32.45;17.52;;;;;;;18.84;51.81;100822.38;4917382;29;20048;-85
2023/03/23 10:11:02;;;;;;;30.80;17.58;;;;;;;18.94;53.86;100822.03;4917250;29;20055;-84
2023/03/23 10:13:40;;;;;;;31.75;16.85;;;;;;;18.86;53.32;100818.13;4917078;29;20495;-85
2023/03/23 10:16:16;;;;;;;32.40;17.48;;;;;;;18.85;50.93;100819.28;4917262;29;20056;-84
2023/03/23 10:19:31;;;;;;;29.02;17.30;;;;;;;18.79;51.26;100824.19;4917132;29;20044;-84
2023/03/23 10:22:09;;;;;;;35.22;18.83;;;;;;;18.75;51.70;100811.31;4893369;29;20064;-84
2023/03/23 10:24:45;;;;;;;35.03;17.73;;;;;;;18.80;52.88;100811.97;4916968;29;20055;-84
2023/03/23 10:27:37;;;;;;;34.53;18.13;;;;;;;19.15;52.50;100807.44;4917031;29;20044;-85
2023/03/23 10:30:10;;;;;;;33.38;17.88;;;;;;;19.23;52.32;100800.22;4917260;29;20051;-84
2023/03/23 10:33:08;;;;;;;37.40;19.13;;;;;;;19.38;52.29;100812.72;4901543;29;20040;-85
2023/03/23 10:35:52;;;;;;;35.45;18.48;;;;;;;19.65;51.74;100805.06;4850463;29;20060;-84
2023/03/23 10:38:26;;;;;;;31.58;17.70;;;;;;;19.51;51.36;100800.59;4916978;29;20036;-84
2023/03/23 10:40:58;;;;;;;27.80;16.73;;;;;;;19.64;51.26;100793.13;4917038;29;20051;-84
2023/03/23 10:43:26;;;;;;;31.58;18.08;;;;;;;19.66;50.50;100798.34;4916723;29;20044;-84
2023/03/23 10:46:08;;;;;;;33.35;17.67;;;;;;;19.26;50.22;100797.59;4916767;29;20437;-84
2023/03/23 10:48:38;;;;;;;33.22;18.77;;;;;;;18.85;53.68;100797.09;4917129;29;20055;-84
2023/03/23 10:51:10;;;;;;;32.20;19.25;;;;;;;18.90;52.87;100799.69;4916661;29;20036;-84
2023/03/23 10:53:43;;;;;;;36.97;18.92;;;;;;;19.17;52.24;100794.06;4899794;29;20048;-84
2023/03/23 10:56:40;;;;;;;35.45;18.95;;;;;;;18.89;52.58;100794.47;4899854;29;20514;-84
2023/03/23 10:59:33;;;;;;;33.78;17.80;;;;;;;18.91;53.98;100786.63;4901057;29;20056;-84
2023/03/23 11:02:03;;;;;;;32.63;19.15;;;;;;;19.02;53.57;100793.44;4908123;29;20520;-84
2023/03/23 11:04:32;;;;;;;28.90;17.17;;;;;;;19.21;53.35;100778.34;4916318;29;20051;-84
2023/03/23 11:07:02;;;;;;;31.88;18.38;;;;;;;19.42;51.89;100780.38;4916348;29;20510;-85
2023/03/23 11:09:38;;;;;;;33.00;18.05;;;;;;;19.39;52.48;100772.72;4899412;29;20488;-84
2023/03/23 11:12:17;;;;;;;32.53;18.10;;;;;;;19.49;53.20;100775.09;4916265;29;20396;-84
2023/03/23 11:14:44;;;;;;;30.90;17.63;;;;;;;19.63;53.11;100776.81;4916620;29;20044;-84
2023/03/23 11:17:24;;;;;;;33.45;18.38;;;;;;;19.63;52.20;100776.81;4916394;29;20048;-85
2023/03/23 11:19:54;;;;;;;32.33;19.00;;;;;;;19.92;51.66;100767.63;4916273;29;20055;-85
2023/03/23 11:22:28;;;;;;;33.88;18.83;;;;;;;20.29;51.10;100767.00;4916668;29;20083;-85
2023/03/23 11:24:59;;;;;;;34.37;20.20;;;;;;;20.23;53.19;100762.81;4916336;29;20052;-86
2023/03/23 11:27:28;;;;;;;30.33;18.67;;;;;;;20.59;50.76;100760.47;4917138;29;20072;-84
2023/03/23 11:29:59;;;;;;;39.08;19.80;;;;;;;20.60;49.96;100765.69;4903034;29;20052;-83
2023/03/23 11:32:29;;;;;;;33.47;19.10;;;;;;;20.89;49.31;100761.13;4882522;29;20055;-83
2023/03/23 11:35:18;;;;;;;40.10;21.90;;;;;;;20.62;48.82;100752.25;4895677;29;20404;-81
2023/03/23 11:37:57;;;;;;;33.30;19.42;;;;;;;20.97;49.81;100776.06;4894091;29;20037;-84
2023/03/23 11:40:29;;;;;;;35.50;19.50;;;;;;;21.09;49.00;100758.59;4895635;29;20041;-84
2023/03/23 11:43:07;;;;;;;39.00;20.98;;;;;;;21.33;47.73;100768.09;4896533;29;20048;-84